Time;durP1;ratioP1;P1;durP2;ratioP2;P2;SDS_P1;SDS_P2;PMS_P1;PMS_P2;Temp;Humidity;BMP_temperature;BMP_pressure;BME280_temperature;BME280_humidity;BME280_pressure;Samples;Min_cycle;Max_cycle;Signal;HPM_P1;HPM_P2
2022/01/19 00:01:19;;;;;;;39.53;20.70;;;7.70;80.10;;;;;;5037277;28;20037;-81
2022/01/19 00:03:44;;;;;;;38.15;18.20;;;7.70;80.00;;;;;;5036760;28;20037;-81
2022/01/19 00:06:10;;;;;;;38.72;20.20;;;7.70;80.20;;;;;;5037631;28;20545;-81
2022/01/19 00:08:36;;;;;;;36.90;18.20;;;7.70;80.20;;;;;;5037529;28;20468;-82
2022/01/19 00:11:01;;;;;;;40.35;19.77;;;7.70;80.10;;;;;;5037452;28;20030;-81
2022/01/19 00:13:30;;;;;;;35.63;19.35;;;7.70;80.20;;;;;;5037493;28;20033;-82
2022/01/19 00:15:56;;;;;;;36.55;19.95;;;7.70;80.20;;;;;;5035822;28;20057;-81
2022/01/19 00:18:24;;;;;;;42.67;20.02;;;7.70;80.10;;;;;;5037326;28;20041;-81
2022/01/19 00:20:52;;;;;;;41.30;20.88;;;7.70;80.20;;;;;;5051020;28;20021;-81
2022/01/19 00:23:18;;;;;;;39.00;19.92;;;7.70;80.20;;;;;;5035366;28;20135;-81
2022/01/19 00:25:46;;;;;;;35.58;20.42;;;7.70;80.10;;;;;;5035686;28;20468;-81
2022/01/19 00:28:12;;;;;;;39.53;21.45;;;7.70;80.20;;;;;;5037193;28;20034;-81
2022/01/19 00:30:39;;;;;;;40.13;21.13;;;7.70;80.20;;;;;;5035647;28;20507;-81
2022/01/19 00:33:05;;;;;;;37.42;21.35;;;7.70;80.20;;;;;;5035275;28;20148;-81
2022/01/19 00:35:31;;;;;;;44.30;21.08;;;7.70;80.30;;;;;;5035772;28;20044;-81
2022/01/19 00:37:58;;;;;;;42.17;21.30;;;7.70;80.20;;;;;;5038461;28;20033;-81
2022/01/19 00:40:24;;;;;;;44.00;21.77;;;7.70;80.10;;;;;;5056795;28;20025;-81
2022/01/19 00:42:51;;;;;;;39.63;20.90;;;7.60;80.40;;;;;;5055517;28;20025;-81
2022/01/19 00:45:17;;;;;;;41.95;20.95;;;7.70;80.30;;;;;;5055611;28;20031;-81
2022/01/19 00:47:43;;;;;;;37.65;20.40;;;7.70;80.30;;;;;;5045936;28;20022;-81
2022/01/19 00:50:14;;;;;;;41.65;22.13;;;7.70;80.30;;;;;;5035597;28;20079;-81
2022/01/19 00:52:40;;;;;;;39.83;20.80;;;7.70;80.40;;;;;;5036988;28;20059;-81
2022/01/19 00:55:08;;;;;;;41.90;21.05;;;7.70;80.20;;;;;;5036546;28;20033;-81
2022/01/19 00:57:34;;;;;;;41.35;21.70;;;7.60;80.40;;;;;;5036477;28;20068;-81
2022/01/19 01:00:00;;;;;;;37.10;19.45;;;7.60;80.50;;;;;;5036312;28;20068;-81
2022/01/19 01:02:26;;;;;;;40.22;20.50;;;7.60;80.50;;;;;;5051210;28;20986;-81
2022/01/19 01:04:52;;;;;;;43.45;22.20;;;7.60;80.50;;;;;;5055283;28;20100;-81
2022/01/19 01:07:19;;;;;;;40.83;20.65;;;7.60;80.60;;;;;;5050869;28;20025;-81
2022/01/19 01:09:44;;;;;;;38.35;20.40;;;7.60;80.50;;;;;;5036436;28;20080;-81
2022/01/19 01:12:20;;;;;;;38.05;20.17;;;7.70;80.50;;;;;;5036410;28;20026;-81
2022/01/19 01:20:34;;;;;;;38.70;20.17;;;7.70;80.50;;;;;;5052085;28;20033;-81
2022/01/19 01:23:00;;;;;;;42.13;20.40;;;7.70;80.60;;;;;;5055995;28;20025;-81
2022/01/19 01:25:26;;;;;;;42.40;20.40;;;7.70;80.40;;;;;;5040539;28;20029;-81
2022/01/19 01:27:52;;;;;;;37.20;19.20;;;7.70;80.40;;;;;;5036097;28;20373;-81
2022/01/19 01:30:19;;;;;;;39.83;20.77;;;7.60;80.60;;;;;;5035842;28;20021;-81
2022/01/19 01:32:45;;;;;;;38.40;21.25;;;7.60;80.80;;;;;;5055614;28;20051;-81
2022/01/19 01:35:11;;;;;;;39.95;21.52;;;7.60;80.70;;;;;;5054504;28;20028;-81
2022/01/19 01:37:36;;;;;;;37.20;19.38;;;7.60;80.90;;;;;;5053888;28;20443;-81
2022/01/19 01:40:04;;;;;;;36.33;19.52;;;7.60;80.90;;;;;;5055051;28;20457;-81
2022/01/19 01:42:30;;;;;;;42.60;19.20;;;7.60;81.10;;;;;;5043441;28;20021;-81
2022/01/19 01:45:00;;;;;;;42.30;20.77;;;7.60;81.00;;;;;;5055921;28;20025;-81
2022/01/19 01:47:27;;;;;;;35.70;20.80;;;7.60;81.00;;;;;;5055796;28;20020;-81
2022/01/19 01:55:23;;;;;;;40.78;20.52;;;7.60;81.10;;;;;;5053049;28;20503;-81
2022/01/19 01:57:49;;;;;;;39.28;18.98;;;7.60;81.00;;;;;;5039161;28;20144;-81
2022/01/19 02:00:20;;;;;;;38.20;19.63;;;7.60;80.80;;;;;;5035474;28;20065;-81
2022/01/19 02:02:47;;;;;;;38.22;20.60;;;7.70;80.80;;;;;;5035263;28;20033;-81
2022/01/19 02:05:14;;;;;;;36.92;20.17;;;7.70;80.90;;;;;;5033719;28;20029;-80
2022/01/19 02:08:00;;;;;;;39.63;20.63;;;7.60;81.00;;;;;;5035324;28;20026;-81
2022/01/19 02:10:54;;;;;;;41.05;20.58;;;7.60;81.00;;;;;;5034162;28;20026;-81
2022/01/19 02:24:44;;;;;;;40.70;21.20;;;7.60;81.10;;;;;;5035833;28;20088;-81
2022/01/19 02:40:51;;;;;;;37.40;19.27;;;7.50;81.20;;;;;;5034864;28;20135;-81
2022/01/19 02:43:23;;;;;;;40.65;20.40;;;7.50;81.40;;;;;;5047721;28;20033;-81
2022/01/19 02:51:17;;;;;;;41.40;20.35;;;7.40;81.70;;;;;;5054924;28;20116;-81
2022/01/19 02:53:43;;;;;;;42.92;19.50;;;7.50;81.50;;;;;;5037569;28;20061;-81
2022/01/19 02:56:21;;;;;;;44.72;22.48;;;7.50;81.50;;;;;;5037899;28;20499;-81
2022/01/19 02:58:51;;;;;;;45.20;20.95;;;7.50;81.40;;;;;;5037212;28;20040;-81
2022/01/19 03:09:23;;;;;;;43.47;21.38;;;7.40;81.60;;;;;;5039130;28;20026;-81
2022/01/19 03:11:50;;;;;;;42.90;21.17;;;7.50;81.50;;;;;;5038422;28;20029;-81
2022/01/19 03:14:17;;;;;;;40.08;21.02;;;7.50;81.50;;;;;;5038529;28;20030;-81
2022/01/19 03:16:43;;;;;;;44.88;21.85;;;7.50;81.40;;;;;;5038712;28;20021;-81
2022/01/19 03:19:10;;;;;;;42.63;20.75;;;7.50;81.40;;;;;;5040615;28;20037;-81
2022/01/19 03:21:37;;;;;;;41.55;20.83;;;7.40;81.70;;;;;;5057348;28;20029;-81
2022/01/19 03:24:04;;;;;;;36.38;19.70;;;7.50;81.60;;;;;;5057287;28;20749;-81
2022/01/19 03:26:29;;;;;;;42.58;21.58;;;7.50;81.50;;;;;;5043934;28;20029;-81
2022/01/19 03:28:55;;;;;;;39.55;21.20;;;7.50;81.60;;;;;;5036715;28;20033;-81
2022/01/19 03:31:21;;;;;;;45.60;20.83;;;7.50;81.30;;;;;;5053930;28;20025;-81
2022/01/19 03:33:46;;;;;;;40.72;21.20;;;7.60;81.40;;;;;;5053445;28;20045;-80
2022/01/19 03:36:12;;;;;;;39.95;20.10;;;7.50;81.00;;;;;;5036504;28;20112;-81
2022/01/19 03:38:41;;;;;;;39.00;20.23;;;7.60;81.30;;;;;;5036626;28;20116;-81
2022/01/19 03:41:06;;;;;;;33.97;19.17;;;7.50;81.40;;;;;;5036844;28;20026;-81
2022/01/19 03:43:32;;;;;;;46.00;21.25;;;7.50;81.40;;;;;;5054506;28;20035;-81
2022/01/19 03:45:59;;;;;;;39.60;20.70;;;7.60;81.40;;;;;;5052325;28;20025;-81
2022/01/19 03:51:01;;;;;;;37.65;18.58;;;7.50;81.30;;;;;;5037854;28;20021;-81
2022/01/19 03:53:27;;;;;;;43.53;20.40;;;7.50;81.40;;;;;;5038042;28;20040;-81
2022/01/19 03:55:53;;;;;;;35.55;18.25;;;7.50;81.30;;;;;;5037752;28;20021;-81
2022/01/19 03:58:18;;;;;;;39.80;18.13;;;7.60;81.30;;;;;;5036734;28;20502;-81
2022/01/19 04:00:45;;;;;;;36.13;19.02;;;7.60;81.20;;;;;;5035702;28;20440;-81
2022/01/19 04:03:14;;;;;;;37.22;19.27;;;7.50;81.20;;;;;;5036266;28;20040;-81
2022/01/19 04:05:56;;;;;;;36.33;18.05;;;7.50;81.00;;;;;;5037326;28;20044;-81
2022/01/19 04:08:21;;;;;;;36.22;18.75;;;7.50;81.30;;;;;;5036529;28;20052;-81
2022/01/19 04:10:47;;;;;;;35.80;17.58;;;7.40;81.60;;;;;;5036076;28;20455;-81
2022/01/19 04:15:53;;;;;;;42.75;18.05;;;7.40;81.60;;;;;;5037293;28;20026;-81
2022/01/19 04:18:19;;;;;;;37.22;19.33;;;7.50;81.40;;;;;;5036177;28;20044;-81
2022/01/19 04:20:49;;;;;;;38.25;19.13;;;7.40;81.40;;;;;;5053635;28;20135;-81
2022/01/19 04:23:16;;;;;;;38.47;18.25;;;7.40;81.60;;;;;;5057218;28;20487;-81
2022/01/19 04:25:41;;;;;;;35.72;17.50;;;7.40;81.50;;;;;;5057122;28;20036;-81
2022/01/19 04:28:07;;;;;;;37.17;17.50;;;7.30;81.30;;;;;;5050280;28;20037;-81
2022/01/19 04:30:35;;;;;;;37.33;19.60;;;7.40;81.60;;;;;;5037447;28;20399;-81
2022/01/19 04:33:06;;;;;;;39.17;18.25;;;7.40;81.50;;;;;;5035706;28;20089;-81
2022/01/19 04:35:49;;;;;;;34.70;17.55;;;7.40;81.40;;;;;;5035800;28;20537;-80
2022/01/19 04:46:58;;;;;;;41.22;19.75;;;7.50;81.30;;;;;;5036999;28;20028;-81
2022/01/19 05:03:29;;;;;;;40.63;17.60;;;7.50;81.10;;;;;;5055034;28;20041;-81
2022/01/19 05:06:01;;;;;;;33.25;15.63;;;7.50;81.10;;;;;;5056592;28;20025;-80
2022/01/19 05:08:47;;;;;;;31.92;16.42;;;7.40;81.10;;;;;;5056558;28;20021;-81
2022/01/19 05:13:57;;;;;;;30.92;16.25;;;7.40;81.10;;;;;;5035512;28;20167;-81
2022/01/19 05:16:23;;;;;;;37.72;17.08;;;7.40;81.20;;;;;;5036549;28;20029;-81
2022/01/19 05:18:50;;;;;;;35.78;16.67;;;7.40;81.20;;;;;;5037091;28;20026;-81
2022/01/19 05:21:19;;;;;;;39.50;18.20;;;7.50;81.20;;;;;;5054728;28;20403;-81
2022/01/19 05:23:45;;;;;;;31.75;16.73;;;7.50;81.10;;;;;;5054995;28;20021;-81
2022/01/19 05:26:11;;;;;;;30.10;16.48;;;7.40;81.10;;;;;;5054770;28;20023;-81
2022/01/19 05:28:37;;;;;;;40.92;19.65;;;7.40;81.20;;;;;;5049176;28;20021;-81
2022/01/19 05:31:03;;;;;;;36.25;17.80;;;7.40;81.20;;;;;;5018389;28;20108;-81
2022/01/19 05:33:29;;;;;;;35.88;17.58;;;7.40;81.00;;;;;;5041008;28;20072;-81
2022/01/19 05:35:55;;;;;;;33.30;16.27;;;7.30;81.20;;;;;;5034551;28;20025;-81
2022/01/19 05:38:23;;;;;;;37.50;16.92;;;7.30;81.20;;;;;;5034588;28;20838;-81
2022/01/19 05:40:49;;;;;;;34.47;15.93;;;7.30;81.20;;;;;;5051105;28;20065;-81
2022/01/19 05:43:15;;;;;;;37.58;17.08;;;7.40;81.30;;;;;;5035956;28;20510;-81
2022/01/19 05:45:41;;;;;;;41.75;17.90;;;7.40;81.20;;;;;;5034447;28;20025;-81
2022/01/19 05:48:07;;;;;;;43.55;18.33;;;7.40;81.10;;;;;;5035938;28;20033;-81
2022/01/19 05:50:33;;;;;;;32.05;15.68;;;7.40;81.10;;;;;;5035615;28;20022;-81
2022/01/19 05:52:59;;;;;;;38.58;17.20;;;7.40;81.10;;;;;;5035550;28;20400;-81
2022/01/19 05:55:28;;;;;;;36.20;17.25;;;7.40;81.20;;;;;;5035894;28;20372;-84
2022/01/19 05:57:53;;;;;;;41.33;17.73;;;7.40;81.20;;;;;;5034309;28;20036;-81
2022/01/19 06:00:19;;;;;;;38.80;18.55;;;7.40;81.20;;;;;;5037636;28;20070;-85
2022/01/19 06:02:45;;;;;;;40.30;17.33;;;7.40;81.10;;;;;;5037044;28;20061;-84
2022/01/19 06:05:11;;;;;;;36.40;16.10;;;7.40;81.10;;;;;;5043776;28;20029;-80
2022/01/19 06:07:46;;;;;;;37.92;16.83;;;7.50;81.10;;;;;;5043209;28;20039;-81
2022/01/19 06:10:42;;;;;;;37.22;17.25;;;7.40;80.90;;;;;;5055318;28;20021;-80
2022/01/19 06:12:59;;;;;;;41.47;17.02;;;7.40;80.90;;;;;;5038010;28;20064;-80
2022/01/19 06:15:25;;;;;;;33.83;16.88;;;7.30;81.00;;;;;;5035185;28;20029;-81
2022/01/19 06:17:51;;;;;;;38.25;17.08;;;7.30;81.40;;;;;;5034969;28;20037;-81
2022/01/19 06:20:17;;;;;;;35.85;17.15;;;7.30;81.10;;;;;;5049088;28;20029;-82
2022/01/19 06:22:42;;;;;;;35.25;16.83;;;7.40;81.10;;;;;;5053771;28;20510;-83
2022/01/19 06:25:08;;;;;;;35.15;16.33;;;7.50;81.00;;;;;;5053268;28;20028;-87
2022/01/19 06:27:34;;;;;;;35.65;16.98;;;7.40;81.00;;;;;;5039789;28;20045;-75
2022/01/19 06:29:59;;;;;;;36.35;18.25;;;7.40;81.20;;;;;;5034767;28;20030;-76
2022/01/19 06:32:25;;;;;;;36.55;16.80;;;7.40;81.00;;;;;;5034576;28;20054;-75
2022/01/19 06:34:52;;;;;;;38.58;18.02;;;7.40;80.90;;;;;;5035145;28;20054;-75
2022/01/19 06:37:18;;;;;;;34.55;15.80;;;7.40;81.00;;;;;;5041322;28;20052;-75
2022/01/19 06:39:43;;;;;;;33.47;15.23;;;7.50;81.00;;;;;;5046813;28;20442;-76
2022/01/19 06:42:09;;;;;;;37.35;17.25;;;7.40;80.90;;;;;;5042352;28;20104;-76
2022/01/19 06:44:35;;;;;;;37.63;15.73;;;7.40;80.90;;;;;;5054671;28;20112;-75
2022/01/19 06:47:01;;;;;;;34.80;17.75;;;7.40;80.80;;;;;;5043918;28;20487;-76
2022/01/19 06:49:26;;;;;;;36.95;16.52;;;7.40;80.80;;;;;;5043658;28;20894;-75
2022/01/19 06:51:54;;;;;;;32.00;15.57;;;7.50;80.80;;;;;;5048372;28;20072;-76
2022/01/19 06:54:20;;;;;;;36.53;15.77;;;7.50;80.80;;;;;;5036223;28;20026;-76
2022/01/19 06:56:46;;;;;;;27.30;14.13;;;7.50;80.70;;;;;;5035826;28;20032;-76
2022/01/19 06:59:12;;;;;;;34.38;16.58;;;7.50;80.80;;;;;;5040258;28;20435;-76
2022/01/19 07:01:37;;;;;;;28.63;14.93;;;7.50;80.60;;;;;;5038308;28;20040;-76
2022/01/19 07:04:05;;;;;;;37.92;17.60;;;7.50;80.80;;;;;;5034245;28;20033;-76
2022/01/19 07:06:31;;;;;;;33.78;14.50;;;7.50;80.80;;;;;;5032876;28;20101;-76
2022/01/19 07:08:59;;;;;;;32.75;15.60;;;7.50;80.80;;;;;;5034247;28;20025;-76
2022/01/19 07:11:25;;;;;;;33.55;15.25;;;7.50;80.80;;;;;;5039346;28;20491;-76
2022/01/19 07:13:50;;;;;;;38.90;17.95;;;7.50;80.90;;;;;;5054161;28;20052;-76
2022/01/19 07:16:16;;;;;;;35.45;16.52;;;7.60;80.70;;;;;;5034682;28;20025;-76
2022/01/19 07:18:42;;;;;;;35.67;16.23;;;7.50;80.60;;;;;;5035405;28;20557;-76
2022/01/19 07:21:08;;;;;;;39.53;16.92;;;7.50;80.80;;;;;;5054471;28;20033;-76
2022/01/19 07:23:34;;;;;;;36.67;16.48;;;7.50;80.80;;;;;;5044365;28;20399;-75
2022/01/19 07:25:59;;;;;;;34.97;16.55;;;7.50;80.70;;;;;;5043144;28;20039;-76
2022/01/19 07:28:25;;;;;;;33.65;15.98;;;7.50;80.60;;;;;;5041505;28;20013;-74
2022/01/19 07:30:50;;;;;;;37.60;17.05;;;7.50;80.80;;;;;;5043882;28;20030;-75
2022/01/19 07:33:16;;;;;;;34.53;16.10;;;7.50;80.80;;;;;;5040387;28;20057;-76
2022/01/19 07:35:42;;;;;;;30.30;16.05;;;7.50;80.70;;;;;;5035939;28;20047;-75
2022/01/19 07:38:08;;;;;;;34.78;16.40;;;7.50;80.80;;;;;;5040515;28;20053;-75
2022/01/19 07:40:33;;;;;;;33.95;15.68;;;7.50;80.60;;;;;;5035000;28;20037;-75
2022/01/19 07:42:59;;;;;;;37.00;15.88;;;7.50;80.60;;;;;;5048734;28;20025;-74
2022/01/19 07:45:25;;;;;;;29.58;14.27;;;7.50;80.70;;;;;;5040807;28;20026;-75
2022/01/19 07:47:50;;;;;;;33.13;15.30;;;7.50;80.60;;;;;;5041654;28;20033;-75
2022/01/19 07:50:16;;;;;;;34.70;15.43;;;7.50;80.60;;;;;;5047588;28;20545;-75
2022/01/19 07:52:43;;;;;;;27.95;14.82;;;7.50;80.60;;;;;;5046430;28;20207;-75
2022/01/19 07:55:08;;;;;;;39.35;15.63;;;7.50;81.00;;;;;;5046203;28;20037;-73
2022/01/19 07:57:34;;;;;;;29.75;13.95;;;7.50;80.80;;;;;;5039530;28;20017;-74
2022/01/19 08:00:00;;;;;;;31.25;14.55;;;7.50;80.80;;;;;;5037715;28;20029;-74
2022/01/19 08:02:32;;;;;;;36.03;14.95;;;7.50;80.60;;;;;;5046120;28;20049;-74
2022/01/19 08:04:58;;;;;;;36.72;14.32;;;7.50;80.40;;;;;;5037847;28;20031;-74
2022/01/19 08:07:24;;;;;;;33.05;14.52;;;7.50;80.10;;;;;;5047275;28;20017;-74
2022/01/19 08:09:50;;;;;;;30.08;15.20;;;7.50;80.40;;;;;;5045577;28;20440;-74
2022/01/19 08:12:15;;;;;;;30.00;13.38;;;7.50;80.30;;;;;;5047201;28;20080;-74
2022/01/19 08:14:41;;;;;;;28.25;14.50;;;7.50;80.40;;;;;;5046942;28;20064;-76
2022/01/19 08:17:07;;;;;;;25.55;14.00;;;7.60;80.40;;;;;;5050858;28;20032;-74
2022/01/19 08:19:32;;;;;;;31.83;15.50;;;7.50;80.40;;;;;;5046962;28;20118;-75
2022/01/19 08:21:58;;;;;;;26.33;14.10;;;7.60;80.30;;;;;;5045323;28;20028;-76
2022/01/19 08:24:25;;;;;;;30.60;14.57;;;7.50;80.40;;;;;;5043899;28;20033;-75
2022/01/19 08:26:53;;;;;;;22.58;12.60;;;7.60;80.40;;;;;;5045019;28;20097;-75
2022/01/19 08:29:18;;;;;;;34.22;13.90;;;7.60;80.20;;;;;;5053930;28;20029;-75
2022/01/19 08:31:44;;;;;;;33.53;13.88;;;7.50;80.00;;;;;;5042863;28;20033;-76
2022/01/19 08:34:10;;;;;;;31.08;12.98;;;7.50;80.30;;;;;;5036526;28;20040;-75
2022/01/19 08:36:35;;;;;;;26.73;13.32;;;7.60;80.20;;;;;;5035431;28;20518;-75
2022/01/19 08:39:01;;;;;;;27.05;13.50;;;7.70;79.70;;;;;;5036891;28;20041;-75
2022/01/19 08:41:27;;;;;;;28.33;12.60;;;7.70;79.90;;;;;;5035523;28;20463;-75
2022/01/19 08:43:53;;;;;;;25.48;12.40;;;7.70;79.60;;;;;;5054180;28;20025;-76
2022/01/19 08:46:18;;;;;;;25.85;12.07;;;7.80;79.60;;;;;;5036650;28;20116;-75
2022/01/19 08:48:44;;;;;;;28.13;13.43;;;7.80;79.80;;;;;;5036641;28;20025;-75
2022/01/19 08:51:10;;;;;;;26.58;12.70;;;7.80;79.40;;;;;;5036509;28;20631;-76
2022/01/19 08:53:36;;;;;;;25.98;12.77;;;7.90;79.10;;;;;;5036279;28;20072;-75
2022/01/19 08:56:01;;;;;;;26.08;12.48;;;7.80;79.50;;;;;;5035204;28;20028;-76
2022/01/19 08:58:27;;;;;;;24.23;12.90;;;7.90;79.60;;;;;;5039156;28;20029;-74
2022/01/19 09:00:54;;;;;;;30.73;13.35;;;7.90;79.40;;;;;;5044818;28;20021;-74
2022/01/19 09:03:19;;;;;;;26.58;13.25;;;7.90;79.10;;;;;;5045099;28;20050;-75
2022/01/19 09:05:46;;;;;;;31.65;13.02;;;8.00;79.40;;;;;;5037570;28;20076;-76
2022/01/19 09:08:11;;;;;;;31.15;13.95;;;8.00;79.00;;;;;;5035416;28;20032;-78
2022/01/19 09:10:40;;;;;;;27.45;12.75;;;8.00;79.20;;;;;;5034471;28;20025;-78
2022/01/19 09:13:06;;;;;;;30.00;13.35;;;8.10;79.10;;;;;;5036152;28;20084;-78
2022/01/19 09:15:32;;;;;;;34.33;14.20;;;8.00;79.00;;;;;;5035879;28;20030;-78
2022/01/19 09:17:58;;;;;;;26.40;14.18;;;8.00;79.20;;;;;;5036162;28;20030;-78
2022/01/19 09:20:24;;;;;;;28.27;13.32;;;8.10;79.40;;;;;;5051006;28;20029;-78
2022/01/19 09:22:50;;;;;;;29.27;13.63;;;8.10;79.30;;;;;;5055926;28;20112;-78
2022/01/19 09:25:16;;;;;;;28.08;13.98;;;8.10;79.00;;;;;;5054413;28;20067;-78
2022/01/19 09:27:42;;;;;;;26.10;13.27;;;8.10;79.30;;;;;;5054179;28;20032;-78
2022/01/19 09:30:19;;;;;;;29.15;13.20;;;8.10;79.30;;;;;;5035758;28;20484;-78
2022/01/19 09:32:54;;;;;;;28.27;12.80;;;8.10;79.20;;;;;;5035516;28;20044;-78
2022/01/19 09:35:24;;;;;;;30.35;14.13;;;8.20;79.00;;;;;;5035375;28;20032;-78
2022/01/19 09:37:50;;;;;;;30.02;14.57;;;8.10;79.10;;;;;;5037821;28;20516;-78
2022/01/19 09:40:16;;;;;;;29.33;13.60;;;8.10;79.40;;;;;;5035610;28;20029;-78
2022/01/19 09:42:47;;;;;;;31.60;14.05;;;8.10;79.40;;;;;;5045137;28;20028;-79
2022/01/19 09:45:13;;;;;;;31.77;14.52;;;8.00;79.80;;;;;;5055436;28;20029;-79
2022/01/19 09:47:38;;;;;;;28.15;13.50;;;8.00;79.60;;;;;;5038495;28;20037;-78
2022/01/19 09:50:05;;;;;;;27.75;13.75;;;8.10;79.50;;;;;;5035156;28;20025;-78
2022/01/19 09:52:32;;;;;;;28.02;13.85;;;8.10;79.40;;;;;;5036036;28;20013;-78
2022/01/19 09:54:57;;;;;;;27.90;12.27;;;8.10;79.30;;;;;;5048032;28;20048;-78
2022/01/19 09:57:23;;;;;;;30.25;13.70;;;8.20;79.20;;;;;;5035561;28;20388;-78
2022/01/19 09:59:49;;;;;;;25.23;12.52;;;8.20;79.00;;;;;;5034525;28;20033;-78
2022/01/19 10:02:16;;;;;;;29.15;13.55;;;8.30;79.20;;;;;;5035294;28;20089;-78
2022/01/19 10:04:46;;;;;;;29.42;15.00;;;8.30;78.80;;;;;;5034665;28;20040;-78
2022/01/19 10:07:18;;;;;;;27.13;13.90;;;8.30;78.60;;;;;;5035206;28;20145;-79
2022/01/19 10:10:02;;;;;;;30.55;14.40;;;8.40;78.60;;;;;;5037386;28;20040;-78
2022/01/19 10:18:28;;;;;;;28.17;13.63;;;8.60;77.70;;;;;;5035040;28;20037;-77
2022/01/19 10:21:06;;;;;;;30.17;14.05;;;8.60;77.50;;;;;;5054662;28;20032;-77
2022/01/19 10:23:36;;;;;;;26.15;13.23;;;8.70;77.00;;;;;;5054689;28;20104;-78
2022/01/19 10:26:09;;;;;;;24.95;12.65;;;8.80;76.90;;;;;;5044611;28;20376;-78
2022/01/19 10:29:07;;;;;;;26.92;12.77;;;8.80;76.80;;;;;;5034905;28;20018;-77
2022/01/19 10:31:35;;;;;;;24.98;13.18;;;8.70;76.60;;;;;;5034863;28;20041;-78
2022/01/19 10:34:15;;;;;;;23.10;12.68;;;8.80;76.70;;;;;;5044706;28;20064;-77
2022/01/19 10:36:42;;;;;;;;;;;8.70;76.70;;;;;;5055017;28;20075;-77
2022/01/19 10:39:08;;;;;;;24.10;12.77;;;8.70;76.20;;;;;;5054724;28;19908;-77
2022/01/19 10:41:33;;;;;;;32.80;14.65;;;8.70;76.70;;;;;;5049235;28;20376;-76
2022/01/19 10:43:59;;;;;;;22.75;11.93;;;8.80;76.30;;;;;;5045635;28;20846;-77
2022/01/19 10:46:28;;;;;;;27.20;12.88;;;9.10;76.00;;;;;;5034299;28;20484;-78
2022/01/19 10:49:01;;;;;;;23.10;11.60;;;9.30;75.10;;;;;;5034667;28;20033;-77
2022/01/19 10:51:36;;;;;;;25.05;11.75;;;9.50;74.90;;;;;;5044950;28;20035;-77
2022/01/19 10:54:22;;;;;;;22.58;11.95;;;9.50;74.90;;;;;;5050571;28;20396;-77
2022/01/19 10:56:57;;;;;;;20.45;10.45;;;9.50;74.30;;;;;;5045172;28;20024;-77
2022/01/19 10:59:28;;;;;;;22.52;11.07;;;9.50;73.90;;;;;;5043608;28;20029;-77
2022/01/19 11:01:56;;;;;;;22.23;12.23;;;9.50;73.50;;;;;;5043672;28;20056;-77
2022/01/19 11:04:32;;;;;;;24.40;11.90;;;9.50;73.30;;;;;;5041727;28;20021;-78
2022/01/19 11:07:12;;;;;;;24.27;11.32;;;9.50;73.60;;;;;;5043861;28;20104;-77
2022/01/19 11:10:07;;;;;;;22.15;12.32;;;9.60;73.30;;;;;;5044106;28;20468;-77
2022/01/19 11:12:39;;;;;;;22.70;11.43;;;9.70;73.20;;;;;;5043787;28;20083;-77
2022/01/19 11:15:07;;;;;;;23.30;11.32;;;9.80;73.10;;;;;;5043650;28;20094;-78
2022/01/19 11:17:33;;;;;;;25.08;14.05;;;9.80;73.10;;;;;;5047128;28;20028;-77
2022/01/19 11:20:07;;;;;;;21.95;11.15;;;9.80;72.70;;;;;;5048458;28;20458;-78
2022/01/19 11:22:35;;;;;;;24.15;11.02;;;9.90;72.90;;;;;;5048637;28;20025;-77
2022/01/19 11:25:10;;;;;;;24.08;11.55;;;9.90;72.50;;;;;;5047329;28;20115;-77
2022/01/19 11:27:39;;;;;;;20.77;11.23;;;9.90;72.70;;;;;;5046979;28;20044;-77
2022/01/19 11:30:15;;;;;;;22.00;11.45;;;9.90;72.50;;;;;;5047874;28;20025;-77
2022/01/19 11:32:41;;;;;;;25.52;11.40;;;9.80;72.60;;;;;;5046888;28;20515;-77
2022/01/19 11:35:08;;;;;;;20.58;11.85;;;9.70;72.60;;;;;;5046611;28;20025;-77
2022/01/19 11:37:43;;;;;;;21.02;11.43;;;9.70;72.40;;;;;;5046617;28;20558;-77
2022/01/19 11:40:15;;;;;;;20.08;11.10;;;9.70;72.70;;;;;;5050947;28;20021;-77
2022/01/19 11:42:42;;;;;;;21.50;11.65;;;9.70;72.50;;;;;;5037242;28;20017;-77
2022/01/19 11:45:30;;;;;;;23.60;10.48;;;9.80;72.50;;;;;;5056575;28;20088;-77
2022/01/19 11:48:16;;;;;;;21.30;11.50;;;10.10;72.30;;;;;;5037324;28;20104;-78
2022/01/19 11:50:43;;;;;;;22.15;12.02;;;10.20;71.50;;;;;;5040682;28;20107;-77
2022/01/19 11:53:11;;;;;;;26.10;13.18;;;10.30;71.80;;;;;;5047807;28;20096;-81
2022/01/19 11:55:39;;;;;;;24.05;11.57;;;10.30;71.50;;;;;;5037960;28;20021;-76
2022/01/19 11:58:21;;;;;;;22.75;10.52;;;10.50;71.00;;;;;;5035065;28;20037;-78
2022/01/19 12:00:52;;;;;;;21.48;10.70;;;10.40;70.60;;;;;;5036717;28;20064;-79
2022/01/19 12:03:21;;;;;;;21.67;9.95;;;10.50;70.60;;;;;;5037575;28;20052;-80
2022/01/19 12:05:52;;;;;;;18.15;9.88;;;10.40;70.50;;;;;;5037476;28;20017;-79
2022/01/19 12:08:28;;;;;;;18.30;9.68;;;10.40;70.80;;;;;;5038310;28;20030;-78
2022/01/19 12:10:57;;;;;;;17.85;9.50;;;10.40;70.90;;;;;;5039472;28;20017;-78
2022/01/19 12:16:19;;;;;;;19.33;10.35;;;10.50;70.50;;;;;;5056617;28;20461;-80
2022/01/19 12:18:49;;;;;;;17.05;9.30;;;10.50;70.50;;;;;;5055899;28;20037;-78
2022/01/19 12:21:34;;;;;;;15.82;8.52;;;10.50;70.10;;;;;;5057263;28;20029;-79
2022/01/19 12:24:19;;;;;;;17.80;9.02;;;10.50;70.40;;;;;;5050381;28;20072;-78
2022/01/19 12:26:50;;;;;;;17.80;8.70;;;10.50;70.40;;;;;;5039907;28;20051;-76
2022/01/19 12:29:38;;;;;;;17.00;8.77;;;10.70;69.70;;;;;;5046090;28;20033;-77
2022/01/19 12:32:16;;;;;;;16.42;7.65;;;10.80;69.90;;;;;;5044135;28;20525;-77
2022/01/19 12:34:54;;;;;;;13.88;7.25;;;10.80;69.50;;;;;;5052575;28;20040;-77
2022/01/19 12:37:35;;;;;;;14.73;7.88;;;10.80;69.50;;;;;;5051819;28;20040;-77
2022/01/19 12:40:12;;;;;;;12.50;6.97;;;11.00;69.20;;;;;;5058459;28;20029;-77
2022/01/19 12:42:44;;;;;;;14.35;7.25;;;10.90;68.40;;;;;;5064674;28;20593;-77
2022/01/19 12:45:34;;;;;;;14.60;6.88;;;11.10;68.50;;;;;;5041158;28;20029;-77
2022/01/19 12:48:01;;;;;;;;;;;11.20;67.80;;;;;;5045761;28;20029;-77
2022/01/19 12:50:26;;;;;;;13.55;6.60;;;11.20;67.70;;;;;;5050310;28;19924;-77
2022/01/19 12:52:58;;;;;;;10.90;5.93;;;11.30;67.50;;;;;;5051667;28;20097;-77
2022/01/19 12:55:30;;;;;;;11.48;6.22;;;11.40;67.90;;;;;;5050122;28;20045;-77
2022/01/19 12:57:57;;;;;;;12.63;6.20;;;11.30;67.50;;;;;;5038045;28;20025;-77
2022/01/19 13:00:25;;;;;;;12.77;6.47;;;11.30;67.70;;;;;;5034630;28;20124;-77
2022/01/19 13:02:51;;;;;;;11.15;6.50;;;11.30;67.90;;;;;;5035619;28;20025;-76
2022/01/19 13:05:19;;;;;;;10.43;5.57;;;11.30;67.80;;;;;;5035335;28;20558;-77
2022/01/19 13:07:52;;;;;;;12.05;6.63;;;11.30;67.70;;;;;;5033658;28;20025;-76
2022/01/19 13:12:57;;;;;;;13.20;7.53;;;11.20;67.50;;;;;;5037727;28;20041;-76
2022/01/19 13:15:47;;;;;;;11.85;6.32;;;11.10;68.00;;;;;;5035533;28;20089;-77
2022/01/19 13:18:33;;;;;;;13.55;7.00;;;11.00;68.60;;;;;;5033631;28;20104;-77
2022/01/19 13:21:03;;;;;;;15.02;6.82;;;11.00;68.60;;;;;;5053644;28;20124;-77
2022/01/19 13:23:31;;;;;;;13.93;7.00;;;11.00;69.40;;;;;;5053817;28;20457;-81
2022/01/19 13:25:59;;;;;;;13.38;7.35;;;11.00;69.70;;;;;;5054809;28;20075;-82
2022/01/19 13:28:27;;;;;;;11.15;6.50;;;10.90;69.40;;;;;;5041988;28;20033;-82
2022/01/19 13:30:57;;;;;;;13.20;7.80;;;10.80;70.20;;;;;;5035491;28;20021;-83
2022/01/19 13:33:23;;;;;;;12.48;6.50;;;10.80;69.70;;;;;;5032135;28;20057;-82
2022/01/19 13:35:58;;;;;;;14.55;7.13;;;10.80;69.10;;;;;;5042262;28;20041;-83
2022/01/19 13:38:26;;;;;;;13.38;6.32;;;10.80;70.00;;;;;;5041373;28;20808;-87
2022/01/19 13:41:01;;;;;;;10.10;6.18;;;10.80;70.00;;;;;;5038703;28;20094;-87
2022/01/19 13:43:26;;;;;;;13.95;7.55;;;10.80;70.20;;;;;;5051526;28;20025;-88
2022/01/19 13:46:01;;;;;;;13.73;7.20;;;10.70;69.60;;;;;;5056275;28;20537;-87
2022/01/19 13:50:58;;;;;;;15.80;7.90;;;10.60;70.20;;;;;;5036602;28;20034;-87
2022/01/19 13:53:28;;;;;;;15.05;8.13;;;10.70;70.60;;;;;;5044883;28;20442;-79
2022/01/19 13:55:56;;;;;;;15.38;8.15;;;10.70;70.60;;;;;;5038466;28;20537;-88
2022/01/19 13:58:21;;;;;;;13.65;7.53;;;10.70;70.10;;;;;;5035082;28;20037;-88
2022/01/19 14:00:54;;;;;;;15.55;8.02;;;10.50;70.50;;;;;;5052193;28;20082;-88
2022/01/19 14:03:23;;;;;;;14.23;8.27;;;10.50;70.40;;;;;;5052953;28;20025;-79
2022/01/19 14:05:51;;;;;;;12.45;7.50;;;10.30;71.30;;;;;;5038135;28;20120;-86
2022/01/19 14:08:33;;;;;;;13.50;7.45;;;10.40;71.80;;;;;;5042981;28;20028;-87
2022/01/19 14:11:00;;;;;;;14.30;8.52;;;10.50;71.80;;;;;;5035865;28;20056;-87
2022/01/19 14:13:28;;;;;;;15.45;8.10;;;10.60;71.90;;;;;;5035929;28;20376;-87
2022/01/19 14:15:55;;;;;;;16.75;9.25;;;10.60;72.40;;;;;;5035006;28;20044;-87
2022/01/19 14:18:21;;;;;;;17.95;8.40;;;10.50;72.40;;;;;;5035988;28;20501;-87
2022/01/19 14:21:07;;;;;;;14.35;7.63;;;10.50;73.20;;;;;;5040675;28;20034;-87